Latest Weather Observations for Wattamolla

IDN60901

Issued at 11:45 am EST Friday 19 September 2014 (issued every 10 minutes, with the page automatically refreshed every 10 minutes)

About weather observations | Map of Sydney area stations | Latest observations for Sydney area | Other Formats
Station Details ID: 066208 Name: WATTAMOLLA AWS Lat: -34.14 Lon: 151.12 Height: 44.0 m
Data from the previous 72 hours. | See also: Recent months for locations in New South Wales
Date/Time
EST
Tmp

°C
App
Tmp
°C
Dew
Point
°C
Rel
Hum
%
Delta-T

°C
Wind Press
QNH
hPa
Press
MSL
hPa
Rain
since
9 am
mm
Dir
 
Spd
km/h
Gust
km/h
Spd
kts
Gust
kts
19/11:30am - - - - - SE 13 19 7 10 - - -
19/11:00am - - - - - SE 19 22 10 12 - - -
19/10:30am - - - - - ESE 9 13 5 7 - - -
19/10:00am - - - - - S 9 11 5 6 - - -
19/09:30am - - - - - S 4 9 2 5 - - -
19/09:00am - - - - - S 9 13 5 7 - - -
19/08:30am - - - - - S 13 15 7 8 - - -
19/08:00am - - - - - WSW 6 9 3 5 - - -
19/07:30am - - - - - NW 7 9 4 5 - - -
19/07:00am - - - - - NW 9 11 5 6 - - -
19/06:30am - - - - - NW 11 13 6 7 - - -
19/06:00am - - - - - NW 13 15 7 8 - - -
19/05:30am - - - - - NW 13 17 7 9 - - -
19/05:00am - - - - - NW 13 13 7 7 - - -
19/04:30am - - - - - WNW 11 15 6 8 - - -
19/04:00am - - - - - WNW 13 15 7 8 - - -
19/03:30am - - - - - W 17 20 9 11 - - -
19/03:00am - - - - - WNW 17 22 9 12 - - -
19/02:30am - - - - - WNW 19 24 10 13 - - -
19/02:00am - - - - - W 19 26 10 14 - - -
19/01:30am - - - - - WNW 17 22 9 12 - - -
19/01:00am - - - - - W 17 20 9 11 - - -
19/12:30am - - - - - WNW 19 26 10 14 - - -
19/12:00am - - - - - WNW 20 28 11 15 - - -
 
Date/Time
EST
Tmp

°C
App
Tmp
°C
Dew
Point
°C
Rel
Hum
%
Delta-T

°C
Wind Press
QNH
hPa
Press
MSL
hPa
Rain
since
9 am
mm
Dir
 
Spd
km/h
Gust
km/h
Spd
kts
Gust
kts
18/11:30pm - - - - - WNW 20 26 11 14 - - -
18/11:00pm - - - - - WNW 19 24 10 13 - - -
18/10:30pm - - - - - W 20 24 11 13 - - -
18/10:00pm - - - - - WNW 20 26 11 14 - - -
18/09:30pm - - - - - WNW 17 24 9 13 - - -
18/09:00pm - - - - - WNW 15 24 8 13 - - -
18/08:30pm - - - - - WNW 20 28 11 15 - - -
18/08:00pm - - - - - WNW 19 24 10 13 - - -
18/07:30pm - - - - - WSW 15 19 8 10 - - -
18/07:00pm - - - - - SSW 11 13 6 7 - - -
18/06:30pm - - - - - S 17 22 9 12 - - -
18/06:00pm - - - - - SSE 17 26 9 14 - - -
18/05:30pm - - - - - SSE 20 30 11 16 - - -
18/05:00pm - - - - - SSE 22 32 12 17 - - -
18/04:30pm - - - - - S 26 37 14 20 - - -
18/04:00pm - - - - - S 30 39 16 21 - - -
18/03:30pm - - - - - SSE 33 43 18 23 - - -
18/03:00pm - - - - - S 32 43 17 23 - - -
18/02:30pm - - - - - S 32 46 17 25 - - -
18/02:00pm - - - - - SSE 32 43 17 23 - - -
18/01:30pm - - - - - S 30 35 16 19 - - -
18/01:00pm - - - - - S 22 30 12 16 - - -
18/12:30pm - - - - - SSE 22 32 12 17 - - -
18/12:00pm - - - - - SSE 24 30 13 16 - - -
18/11:30am - - - - - SSE 32 39 17 21 - - -
18/11:00am - - - - - S 28 35 15 19 - - -
18/10:30am - - - - - S 26 33 14 18 - - -
18/10:00am - - - - - S 20 35 11 19 - - -
18/09:30am - - - - - S 26 37 14 20 - - -
18/09:00am - - - - - SW 17 26 9 14 - - -
18/08:30am - - - - - WSW 17 28 9 15 - - -
18/08:00am - - - - - W 22 39 12 21 - - -
18/07:30am - - - - - W 26 39 14 21 - - -
18/07:00am - - - - - WNW 22 35 12 19 - - -
18/06:30am - - - - - W 19 33 10 18 - - -
18/06:00am - - - - - W 17 26 9 14 - - -
18/05:30am - - - - - W 15 20 8 11 - - -
18/05:00am - - - - - WNW 17 22 9 12 - - -
18/04:30am - - - - - W 17 22 9 12 - - -
18/04:00am - - - - - W 17 20 9 11 - - -
18/03:30am - - - - - W 22 28 12 15 - - -
18/03:00am - - - - - W 17 22 9 12 - - -
18/02:30am - - - - - WSW 19 33 10 18 - - -
18/02:00am - - - - - SW 19 33 10 18 - - -
18/01:30am - - - - - SW 19 32 10 17 - - -
18/01:00am - - - - - WNW 28 48 15 26 - - -
18/12:38am - - - - - WNW 35 54 19 29 - - -
18/12:30am - - - - - WNW 33 48 18 26 - - -
18/12:00am - - - - - WNW 32 50 17 27 - - -
 
Date/Time
EST
Tmp

°C
App
Tmp
°C
Dew
Point
°C
Rel
Hum
%
Delta-T

°C
Wind Press
QNH
hPa
Press
MSL
hPa
Rain
since
9 am
mm
Dir
 
Spd
km/h
Gust
km/h
Spd
kts
Gust
kts
17/11:44pm - - - - - WNW 28 46 15 25 - - -
17/11:30pm - - - - - W 22 35 12 19 - - -
17/11:00pm - - - - - W 13 19 7 10 - - -
17/10:30pm - - - - - W 17 22 9 12 - - -
17/10:00pm - - - - - W 17 20 9 11 - - -
17/09:30pm - - - - - W 15 24 8 13 - - -
17/09:00pm - - - - - WNW 15 26 8 14 - - -
17/08:30pm - - - - - NW 15 20 8 11 - - -
17/08:00pm - - - - - W 15 17 8 9 - - -
17/07:30pm - - - - - W 17 26 9 14 - - -
17/07:00pm - - - - - W 17 20 9 11 - - -
17/06:30pm - - - - - W 17 24 9 13 - - -
17/06:00pm - - - - - W 17 22 9 12 - - -
17/05:30pm - - - - - W 17 30 9 16 - - -
17/05:00pm - - - - - W 19 30 10 16 - - -
17/04:30pm - - - - - W 26 48 14 26 - - -
17/04:04pm - - - - - W 30 48 16 26 - - -
17/04:00pm - - - - - W 32 48 17 26 - - -
17/03:31pm - - - - - W 28 46 15 25 - - -
17/03:30pm - - - - - W 30 46 16 25 - - -
17/03:01pm - - - - - W 28 46 15 25 - - -
17/03:00pm - - - - - W 30 46 16 25 - - -
17/02:30pm - - - - - WNW 28 48 15 26 - - -
17/02:28pm - - - - - WNW 28 48 15 26 - - -
17/02:00pm - - - - - W 24 33 13 18 - - -
17/01:30pm - - - - - WNW 24 39 13 21 - - -
17/01:00pm - - - - - W 26 39 14 21 - - -
17/12:30pm - - - - - WNW 28 39 15 21 - - -
17/12:00pm - - - - - WNW 26 37 14 20 - - -
17/11:30am - - - - - WNW 26 37 14 20 - - -
17/11:06am - - - - - WNW 28 46 15 25 - - -
17/11:00am - - - - - W 30 46 16 25 - - -
17/10:30am - - - - - W 28 41 15 22 - - -
17/10:00am - - - - - W 33 48 18 26 - - -
17/09:30am - - - - - W 30 50 16 27 - - -
17/09:00am - - - - - WNW 33 52 18 28 - - -
17/08:35am - - - - - WNW 30 52 16 28 - - -
17/08:30am - - - - - WNW 30 43 16 23 - - -
17/08:09am - - - - - WNW 30 52 16 28 - - -
17/08:00am - - - - - WNW 30 44 16 24 - - -
17/07:30am - - - - - NW 28 41 15 22 - - -
17/07:00am - - - - - NW 26 37 14 20 - - -
17/06:30am - - - - - NW 22 33 12 18 - - -
17/06:00am - - - - - NE 6 13 3 7 - - -
17/05:30am - - - - - ENE 9 17 5 9 - - -
17/05:00am - - - - - W 4 13 2 7 - - -
17/04:30am - - - - - SE 2 9 1 5 - - -
17/04:00am - - - - - NW 22 33 12 18 - - -
17/03:30am - - - - - NW 26 37 14 20 - - -
17/03:00am - - - - - WNW 28 39 15 21 - - -
17/02:30am - - - - - NW 28 37 15 20 - - -
17/02:09am - - - - - WNW 30 50 16 27 - - -
17/02:00am - - - - - WNW 30 43 16 23 - - -
17/01:30am - - - - - WNW 32 44 17 24 - - -
17/01:00am - - - - - NW 30 41 16 22 - - -
17/12:30am - - - - - NW 30 41 16 22 - - -
17/12:00am - - - - - NW 28 39 15 21 - - -
 
Date/Time
EST
Tmp

°C
App
Tmp
°C
Dew
Point
°C
Rel
Hum
%
Delta-T

°C
Wind Press
QNH
hPa
Press
MSL
hPa
Rain
since
9 am
mm
Dir
 
Spd
km/h
Gust
km/h
Spd
kts
Gust
kts
16/11:34pm - - - - - NW 28 46 15 25 - - -
16/11:30pm - - - - - NW 26 35 14 19 - - -
16/11:00pm - - - - - NW 32 50 17 27 - - -
16/10:42pm - - - - - NW 33 52 18 28 - - -
16/10:30pm - - - - - NW 35 52 19 28 - - -
16/10:01pm - - - - - WNW 35 54 19 29 - - -
16/10:00pm - - - - - WNW 35 52 19 28 - - -
16/09:30pm - - - - - NW 35 52 19 28 - - -
16/09:00pm - - - - - NW 39 57 21 31 - - -
16/08:30pm - - - - - NW 35 59 19 32 - - -
16/08:17pm - - - - - NW 28 54 15 29 - - -
16/08:00pm - - - - - WNW 26 43 14 23 - - -
16/07:38pm - - - - - WNW 35 54 19 29 - - -
16/07:30pm - - - - - WNW 37 54 20 29 - - -
16/07:15pm - - - - - WNW 28 46 15 25 - - -
16/06:30pm - - - - - WNW 24 33 13 18 - - -
16/06:00pm - - - - - WNW 22 32 12 17 - - -
16/05:30pm - - - - - WNW 17 30 9 16 - - -
16/05:00pm - - - - - WNW 15 20 8 11 - - -
16/04:30pm - - - - - WNW 15 24 8 13 - - -
16/04:00pm - - - - - E 4 9 2 5 - - -
16/03:30pm - - - - - NE 9 15 5 8 - - -
16/03:00pm - - - - - N 11 19 6 10 - - -
16/02:30pm - - - - - NE 11 17 6 9 - - -
16/02:00pm - - - - - NE 13 19 7 10 - - -
16/01:30pm - - - - - NNE 20 28 11 15 - - -
16/01:00pm - - - - - NNE 26 43 14 23 - - -
16/12:30pm - - - - - NNE 26 41 14 22 - - -
16/12:00pm - - - - - NNE 32 46 17 25 - - -
16/11:49am - - - - - NNE 32 50 17 27 - - -

Latest Capital City Observations: Canberra | Sydney | Melbourne | Brisbane | Adelaide | Perth | Hobart | Darwin

Other Formats:

Comma delimited format used in spreadsheet applications
http://www.bom.gov.au/fwo/IDN60901/IDN60901.95752.axf

JavaScript Object Notation format (JSON) in row-major order
http://www.bom.gov.au/fwo/IDN60901/IDN60901.95752.json